sensor_id;sensor_type;location;lat;lon;timestamp;pressure;altitude;pressure_sealevel;temperature;humidity
54248;BME280;40161;39.768;2.722;2023-05-28T00:01:54;101177.97;;;20.28;75.44
54248;BME280;40161;39.768;2.722;2023-05-28T00:04:20;101181.59;;;20.25;75.48
54248;BME280;40161;39.768;2.722;2023-05-28T00:06:47;101174.03;;;20.25;74.63
54248;BME280;40161;39.768;2.722;2023-05-28T00:09:16;101178.81;;;20.25;76.00
54248;BME280;40161;39.768;2.722;2023-05-28T00:11:41;101177.72;;;20.19;75.74
54248;BME280;40161;39.768;2.722;2023-05-28T00:14:07;101180.16;;;20.13;75.64
54248;BME280;40161;39.768;2.722;2023-05-28T00:16:33;101177.59;;;20.26;75.67
54248;BME280;40161;39.768;2.722;2023-05-28T00:19:02;101169.44;;;20.38;74.31
54248;BME280;40161;39.768;2.722;2023-05-28T00:21:27;101173.69;;;20.47;73.72
54248;BME280;40161;39.768;2.722;2023-05-28T00:23:53;101180.16;;;20.40;74.02
54248;BME280;40161;39.768;2.722;2023-05-28T00:26:18;101183.13;;;20.29;75.35
54248;BME280;40161;39.768;2.722;2023-05-28T00:28:44;101184.91;;;20.16;76.21
54248;BME280;40161;39.768;2.722;2023-05-28T00:31:10;101185.00;;;20.09;76.36
54248;BME280;40161;39.768;2.722;2023-05-28T00:33:36;101183.50;;;20.04;76.57
54248;BME280;40161;39.768;2.722;2023-05-28T00:36:02;101184.72;;;20.03;76.77
54248;BME280;40161;39.768;2.722;2023-05-28T00:38:27;101181.56;;;20.01;76.32
54248;BME280;40161;39.768;2.722;2023-05-28T00:40:53;101181.16;;;19.99;76.79
54248;BME280;40161;39.768;2.722;2023-05-28T00:43:20;101169.25;;;19.99;76.61
54248;BME280;40161;39.768;2.722;2023-05-28T00:45:50;101170.88;;;19.96;77.29
54248;BME280;40161;39.768;2.722;2023-05-28T00:48:16;101167.66;;;19.98;76.64
54248;BME280;40161;39.768;2.722;2023-05-28T00:50:42;101154.03;;;20.07;76.33
54248;BME280;40161;39.768;2.722;2023-05-28T00:53:09;101168.19;;;20.16;75.78
54248;BME280;40161;39.768;2.722;2023-05-28T00:55:36;101151.47;;;20.16;75.73
54248;BME280;40161;39.768;2.722;2023-05-28T00:58:02;101153.78;;;20.21;75.50
54248;BME280;40161;39.768;2.722;2023-05-28T01:00:33;101150.16;;;20.24;75.77
54248;BME280;40161;39.768;2.722;2023-05-28T01:03:00;101155.34;;;20.22;75.52
54248;BME280;40161;39.768;2.722;2023-05-28T01:05:26;101143.88;;;20.20;75.22
54248;BME280;40161;39.768;2.722;2023-05-28T01:07:52;101146.72;;;20.17;75.80
54248;BME280;40161;39.768;2.722;2023-05-28T01:10:17;101147.59;;;20.10;75.50
54248;BME280;40161;39.768;2.722;2023-05-28T01:12:44;101144.50;;;20.04;75.75
54248;BME280;40161;39.768;2.722;2023-05-28T01:15:10;101133.72;;;20.06;75.75
54248;BME280;40161;39.768;2.722;2023-05-28T01:17:36;101142.03;;;20.10;75.54
54248;BME280;40161;39.768;2.722;2023-05-28T01:20:04;101133.47;;;19.97;75.34
54248;BME280;40161;39.768;2.722;2023-05-28T01:22:40;101118.16;;;19.82;76.85
54248;BME280;40161;39.768;2.722;2023-05-28T01:25:12;101117.06;;;19.76;77.43
54248;BME280;40161;39.768;2.722;2023-05-28T01:27:41;101129.16;;;19.65;78.84
54248;BME280;40161;39.768;2.722;2023-05-28T01:30:08;101124.38;;;19.66;78.80
54248;BME280;40161;39.768;2.722;2023-05-28T01:32:38;101120.75;;;19.69;78.90
54248;BME280;40161;39.768;2.722;2023-05-28T01:35:05;101128.06;;;19.56;78.69
54248;BME280;40161;39.768;2.722;2023-05-28T01:37:33;101116.53;;;19.54;80.01
54248;BME280;40161;39.768;2.722;2023-05-28T01:40:01;101116.69;;;19.43;81.12
54248;BME280;40161;39.768;2.722;2023-05-28T01:42:29;101114.63;;;19.47;80.69
54248;BME280;40161;39.768;2.722;2023-05-28T01:44:56;101114.38;;;19.38;81.07
54248;BME280;40161;39.768;2.722;2023-05-28T01:47:23;101107.97;;;19.41;81.00
54248;BME280;40161;39.768;2.722;2023-05-28T01:49:49;101100.25;;;19.52;80.01
54248;BME280;40161;39.768;2.722;2023-05-28T01:52:15;101097.53;;;19.49;80.11
54248;BME280;40161;39.768;2.722;2023-05-28T01:54:41;101112.25;;;19.15;82.73
54248;BME280;40161;39.768;2.722;2023-05-28T01:57:07;101100.00;;;19.09;84.39
54248;BME280;40161;39.768;2.722;2023-05-28T01:59:32;101095.31;;;19.02;84.60
54248;BME280;40161;39.768;2.722;2023-05-28T02:01:58;101098.06;;;19.06;85.24
54248;BME280;40161;39.768;2.722;2023-05-28T02:04:24;101100.88;;;19.02;84.83
54248;BME280;40161;39.768;2.722;2023-05-28T02:06:50;101090.53;;;19.03;85.57
54248;BME280;40161;39.768;2.722;2023-05-28T02:09:16;101090.66;;;19.26;83.27
54248;BME280;40161;39.768;2.722;2023-05-28T02:11:41;101097.44;;;19.25;82.93
54248;BME280;40161;39.768;2.722;2023-05-28T02:14:07;101096.41;;;19.12;83.09
54248;BME280;40161;39.768;2.722;2023-05-28T02:16:33;101098.06;;;19.06;84.64
54248;BME280;40161;39.768;2.722;2023-05-28T02:19:00;101092.31;;;19.24;83.63
54248;BME280;40161;39.768;2.722;2023-05-28T02:21:26;101098.16;;;19.29;83.29
54248;BME280;40161;39.768;2.722;2023-05-28T02:23:53;101092.16;;;19.34;82.53
54248;BME280;40161;39.768;2.722;2023-05-28T02:26:19;101099.38;;;19.28;82.42
54248;BME280;40161;39.768;2.722;2023-05-28T02:28:45;101078.72;;;18.95;84.42
54248;BME280;40161;39.768;2.722;2023-05-28T02:31:12;101106.56;;;18.91;84.60
54248;BME280;40161;39.768;2.722;2023-05-28T02:33:38;101103.88;;;18.84;85.63
54248;BME280;40161;39.768;2.722;2023-05-28T02:36:04;101107.84;;;18.83;86.06
54248;BME280;40161;39.768;2.722;2023-05-28T02:38:32;101112.59;;;18.86;85.58
54248;BME280;40161;39.768;2.722;2023-05-28T02:40:57;101119.34;;;18.85;86.27
54248;BME280;40161;39.768;2.722;2023-05-28T02:43:23;101113.50;;;18.76;85.90
54248;BME280;40161;39.768;2.722;2023-05-28T02:45:48;101122.81;;;18.96;85.33
54248;BME280;40161;39.768;2.722;2023-05-28T02:48:14;101117.88;;;19.11;83.70
54248;BME280;40161;39.768;2.722;2023-05-28T02:50:39;101117.44;;;19.13;84.48
54248;BME280;40161;39.768;2.722;2023-05-28T02:53:05;101096.63;;;18.94;84.08
54248;BME280;40161;39.768;2.722;2023-05-28T02:55:30;101125.03;;;19.09;83.75
54248;BME280;40161;39.768;2.722;2023-05-28T02:57:56;101122.59;;;19.14;83.54
54248;BME280;40161;39.768;2.722;2023-05-28T03:00:22;101125.38;;;19.14;83.81
54248;BME280;40161;39.768;2.722;2023-05-28T03:02:47;101110.22;;;19.19;84.05
54248;BME280;40161;39.768;2.722;2023-05-28T03:05:13;101110.34;;;19.08;83.85
54248;BME280;40161;39.768;2.722;2023-05-28T03:07:38;101104.84;;;19.05;84.94
54248;BME280;40161;39.768;2.722;2023-05-28T03:10:05;101108.88;;;19.00;85.16
54248;BME280;40161;39.768;2.722;2023-05-28T03:12:30;101090.28;;;18.93;84.89
54248;BME280;40161;39.768;2.722;2023-05-28T03:14:56;101101.56;;;18.79;86.33
54248;BME280;40161;39.768;2.722;2023-05-28T03:17:21;101096.84;;;18.69;87.66
54248;BME280;40161;39.768;2.722;2023-05-28T03:19:47;101087.75;;;18.65;88.71
54248;BME280;40161;39.768;2.722;2023-05-28T03:22:12;101084.47;;;18.36;88.82
54248;BME280;40161;39.768;2.722;2023-05-28T03:24:38;101091.69;;;18.26;91.52
54248;BME280;40161;39.768;2.722;2023-05-28T03:27:04;101088.53;;;18.24;92.39
54248;BME280;40161;39.768;2.722;2023-05-28T03:29:33;101095.25;;;18.26;92.94
54248;BME280;40161;39.768;2.722;2023-05-28T03:31:58;101087.28;;;18.32;93.32
54248;BME280;40161;39.768;2.722;2023-05-28T03:34:24;101084.31;;;18.50;91.51
54248;BME280;40161;39.768;2.722;2023-05-28T03:36:50;101085.78;;;18.65;89.95
54248;BME280;40161;39.768;2.722;2023-05-28T03:39:16;101083.75;;;18.69;89.00
54248;BME280;40161;39.768;2.722;2023-05-28T03:41:41;101084.94;;;18.72;86.94
54248;BME280;40161;39.768;2.722;2023-05-28T03:44:09;101071.06;;;18.72;86.38
54248;BME280;40161;39.768;2.722;2023-05-28T03:46:35;101052.06;;;18.60;85.53
54248;BME280;40161;39.768;2.722;2023-05-28T03:49:00;101079.13;;;18.56;87.17
54248;BME280;40161;39.768;2.722;2023-05-28T03:51:26;101082.56;;;18.25;90.05
54248;BME280;40161;39.768;2.722;2023-05-28T03:53:52;101080.69;;;18.12;91.48
54248;BME280;40161;39.768;2.722;2023-05-28T03:56:17;101079.53;;;18.06;90.65
54248;BME280;40161;39.768;2.722;2023-05-28T03:58:46;101083.50;;;18.08;91.03
54248;BME280;40161;39.768;2.722;2023-05-28T04:01:11;101087.06;;;18.09;91.17
54248;BME280;40161;39.768;2.722;2023-05-28T04:03:38;101086.66;;;18.14;92.13
54248;BME280;40161;39.768;2.722;2023-05-28T04:06:03;101080.72;;;18.08;92.81
54248;BME280;40161;39.768;2.722;2023-05-28T04:08:29;101087.81;;;18.13;92.66
54248;BME280;40161;39.768;2.722;2023-05-28T04:10:55;101096.56;;;18.11;93.17
54248;BME280;40161;39.768;2.722;2023-05-28T04:13:20;101095.34;;;18.16;92.55
54248;BME280;40161;39.768;2.722;2023-05-28T04:15:47;101101.88;;;18.40;91.66
54248;BME280;40161;39.768;2.722;2023-05-28T04:18:13;101106.97;;;18.48;89.84
54248;BME280;40161;39.768;2.722;2023-05-28T04:20:38;101114.06;;;18.53;89.37
54248;BME280;40161;39.768;2.722;2023-05-28T04:23:04;101099.00;;;18.50;88.76
54248;BME280;40161;39.768;2.722;2023-05-28T04:25:29;101112.84;;;18.58;88.48
54248;BME280;40161;39.768;2.722;2023-05-28T04:27:55;101110.41;;;18.63;88.03
54248;BME280;40161;39.768;2.722;2023-05-28T04:30:22;101112.00;;;18.61;88.44
54248;BME280;40161;39.768;2.722;2023-05-28T04:32:49;101115.59;;;18.58;88.26
54248;BME280;40161;39.768;2.722;2023-05-28T04:35:18;101110.09;;;18.54;88.25
54248;BME280;40161;39.768;2.722;2023-05-28T04:37:44;101116.03;;;18.56;88.95
54248;BME280;40161;39.768;2.722;2023-05-28T04:40:10;101101.34;;;18.56;88.12
54248;BME280;40161;39.768;2.722;2023-05-28T04:42:39;101107.69;;;18.56;88.23
54248;BME280;40161;39.768;2.722;2023-05-28T04:45:09;101107.28;;;18.58;88.40
54248;BME280;40161;39.768;2.722;2023-05-28T04:47:36;101105.69;;;18.57;87.83
54248;BME280;40161;39.768;2.722;2023-05-28T04:50:03;101109.66;;;18.59;87.80
54248;BME280;40161;39.768;2.722;2023-05-28T04:52:30;101112.03;;;18.57;87.40
54248;BME280;40161;39.768;2.722;2023-05-28T04:55:01;101112.97;;;18.43;88.38
54248;BME280;40161;39.768;2.722;2023-05-28T04:57:26;101107.94;;;18.31;90.78
54248;BME280;40161;39.768;2.722;2023-05-28T04:59:52;101108.28;;;18.33;90.84
54248;BME280;40161;39.768;2.722;2023-05-28T05:02:17;101110.19;;;18.43;90.50
54248;BME280;40161;39.768;2.722;2023-05-28T05:04:44;101104.91;;;18.56;88.76
54248;BME280;40161;39.768;2.722;2023-05-28T05:07:11;101097.69;;;18.66;86.49
54248;BME280;40161;39.768;2.722;2023-05-28T05:09:37;101092.88;;;18.70;85.57
54248;BME280;40161;39.768;2.722;2023-05-28T05:12:03;101088.94;;;18.64;85.64
54248;BME280;40161;39.768;2.722;2023-05-28T05:14:28;101088.63;;;18.55;87.44
54248;BME280;40161;39.768;2.722;2023-05-28T05:16:54;101079.63;;;18.43;89.12
54248;BME280;40161;39.768;2.722;2023-05-28T05:19:19;101086.38;;;18.42;89.00
54248;BME280;40161;39.768;2.722;2023-05-28T05:21:45;101080.13;;;18.35;90.66
54248;BME280;40161;39.768;2.722;2023-05-28T05:24:10;101079.75;;;18.29;91.46
54248;BME280;40161;39.768;2.722;2023-05-28T05:26:36;101076.22;;;18.25;91.53
54248;BME280;40161;39.768;2.722;2023-05-28T05:29:02;101077.78;;;18.26;92.20
54248;BME280;40161;39.768;2.722;2023-05-28T05:31:27;101073.38;;;18.32;91.47
54248;BME280;40161;39.768;2.722;2023-05-28T05:33:53;101070.22;;;18.30;91.30
54248;BME280;40161;39.768;2.722;2023-05-28T05:36:18;101076.16;;;18.32;92.19
54248;BME280;40161;39.768;2.722;2023-05-28T05:38:44;101074.94;;;18.33;92.50
54248;BME280;40161;39.768;2.722;2023-05-28T05:41:11;101076.56;;;18.34;92.63
54248;BME280;40161;39.768;2.722;2023-05-28T05:43:36;101079.63;;;18.43;92.63
54248;BME280;40161;39.768;2.722;2023-05-28T05:46:02;101074.41;;;18.49;91.25
54248;BME280;40161;39.768;2.722;2023-05-28T05:48:28;101083.53;;;18.49;90.51
54248;BME280;40161;39.768;2.722;2023-05-28T05:50:54;101079.94;;;18.53;91.01
54248;BME280;40161;39.768;2.722;2023-05-28T05:53:28;101081.13;;;18.55;91.37
54248;BME280;40161;39.768;2.722;2023-05-28T05:55:54;101080.66;;;18.60;92.06
54248;BME280;40161;39.768;2.722;2023-05-28T05:58:19;101073.53;;;18.59;92.21
54248;BME280;40161;39.768;2.722;2023-05-28T06:00:45;101074.69;;;18.62;92.17
54248;BME280;40161;39.768;2.722;2023-05-28T06:03:13;101086.97;;;18.64;92.69
54248;BME280;40161;39.768;2.722;2023-05-28T06:05:39;101087.38;;;18.63;92.16
54248;BME280;40161;39.768;2.722;2023-05-28T06:08:05;101082.19;;;18.65;91.92
54248;BME280;40161;39.768;2.722;2023-05-28T06:10:30;101077.41;;;18.69;91.47
54248;BME280;40161;39.768;2.722;2023-05-28T06:12:56;101084.94;;;18.72;89.71
54248;BME280;40161;39.768;2.722;2023-05-28T06:15:22;101091.25;;;18.76;89.61
54248;BME280;40161;39.768;2.722;2023-05-28T06:17:50;101086.44;;;18.80;89.06
54248;BME280;40161;39.768;2.722;2023-05-28T06:20:16;101087.94;;;18.88;89.01
54248;BME280;40161;39.768;2.722;2023-05-28T06:22:44;101085.44;;;18.97;87.90
54248;BME280;40161;39.768;2.722;2023-05-28T06:25:10;101087.31;;;19.08;87.12
54248;BME280;40161;39.768;2.722;2023-05-28T06:27:37;101085.19;;;19.19;86.94
54248;BME280;40161;39.768;2.722;2023-05-28T06:30:04;101081.13;;;19.27;86.65
54248;BME280;40161;39.768;2.722;2023-05-28T06:32:31;101088.16;;;19.35;86.42
54248;BME280;40161;39.768;2.722;2023-05-28T06:34:56;101081.34;;;19.40;85.85
54248;BME280;40161;39.768;2.722;2023-05-28T06:37:22;101075.41;;;19.38;85.58
54248;BME280;40161;39.768;2.722;2023-05-28T06:39:48;101088.81;;;19.47;85.48
54248;BME280;40161;39.768;2.722;2023-05-28T06:42:14;101082.03;;;19.48;85.30
54248;BME280;40161;39.768;2.722;2023-05-28T06:44:39;101080.00;;;19.52;85.49
54248;BME280;40161;39.768;2.722;2023-05-28T06:47:05;101079.56;;;19.53;86.01
54248;BME280;40161;39.768;2.722;2023-05-28T06:49:31;101074.31;;;19.59;86.05
54248;BME280;40161;39.768;2.722;2023-05-28T06:51:56;101075.03;;;19.66;85.82
54248;BME280;40161;39.768;2.722;2023-05-28T06:54:22;101069.94;;;19.61;85.93
54248;BME280;40161;39.768;2.722;2023-05-28T06:56:48;101061.94;;;19.63;85.85
54248;BME280;40161;39.768;2.722;2023-05-28T06:59:13;101060.34;;;19.62;85.01
54248;BME280;40161;39.768;2.722;2023-05-28T07:01:39;101071.41;;;19.70;85.10
54248;BME280;40161;39.768;2.722;2023-05-28T07:04:04;101064.75;;;19.63;85.07
54248;BME280;40161;39.768;2.722;2023-05-28T07:06:30;101075.09;;;19.63;86.30
54248;BME280;40161;39.768;2.722;2023-05-28T07:08:55;101067.16;;;19.61;86.70
54248;BME280;40161;39.768;2.722;2023-05-28T07:11:21;101067.47;;;19.67;86.68
54248;BME280;40161;39.768;2.722;2023-05-28T07:13:47;101070.97;;;19.71;87.44
54248;BME280;40161;39.768;2.722;2023-05-28T07:16:13;101068.63;;;19.70;87.05
54248;BME280;40161;39.768;2.722;2023-05-28T07:18:39;101077.75;;;19.70;87.01
54248;BME280;40161;39.768;2.722;2023-05-28T07:21:04;101089.19;;;19.79;87.02
54248;BME280;40161;39.768;2.722;2023-05-28T07:23:34;101089.97;;;19.80;87.44
54248;BME280;40161;39.768;2.722;2023-05-28T07:26:00;101088.63;;;19.88;87.05
54248;BME280;40161;39.768;2.722;2023-05-28T07:28:25;101094.59;;;19.90;86.17
54248;BME280;40161;39.768;2.722;2023-05-28T07:30:51;101100.88;;;19.94;86.17
54248;BME280;40161;39.768;2.722;2023-05-28T07:33:17;101101.94;;;20.04;84.94
54248;BME280;40161;39.768;2.722;2023-05-28T07:35:43;101097.03;;;20.11;84.19
54248;BME280;40161;39.768;2.722;2023-05-28T07:38:09;101106.03;;;20.19;84.14
54248;BME280;40161;39.768;2.722;2023-05-28T07:40:36;101098.38;;;20.27;83.22
54248;BME280;40161;39.768;2.722;2023-05-28T07:43:02;101098.53;;;20.39;83.15
54248;BME280;40161;39.768;2.722;2023-05-28T07:45:28;101103.56;;;20.48;83.17
54248;BME280;40161;39.768;2.722;2023-05-28T07:47:53;101101.09;;;20.54;82.95
54248;BME280;40161;39.768;2.722;2023-05-28T07:50:19;101105.34;;;20.62;82.27
54248;BME280;40161;39.768;2.722;2023-05-28T07:52:45;101107.22;;;20.69;81.60
54248;BME280;40161;39.768;2.722;2023-05-28T07:55:11;101100.81;;;20.72;80.30
54248;BME280;40161;39.768;2.722;2023-05-28T07:57:36;101109.81;;;20.79;79.81
54248;BME280;40161;39.768;2.722;2023-05-28T08:00:02;101106.59;;;20.81;77.81
54248;BME280;40161;39.768;2.722;2023-05-28T08:02:32;101104.41;;;20.92;78.45
54248;BME280;40161;39.768;2.722;2023-05-28T08:04:58;101102.41;;;20.93;76.21
54248;BME280;40161;39.768;2.722;2023-05-28T08:07:27;101099.47;;;21.00;76.20
54248;BME280;40161;39.768;2.722;2023-05-28T08:09:53;101107.25;;;21.08;74.32
54248;BME280;40161;39.768;2.722;2023-05-28T08:12:18;101109.19;;;21.12;73.01
54248;BME280;40161;39.768;2.722;2023-05-28T08:14:44;101083.44;;;21.04;72.48
54248;BME280;40161;39.768;2.722;2023-05-28T08:17:10;101112.53;;;21.23;71.36
54248;BME280;40161;39.768;2.722;2023-05-28T08:19:35;101101.81;;;21.21;71.44
54248;BME280;40161;39.768;2.722;2023-05-28T08:22:01;101106.88;;;21.26;70.37
54248;BME280;40161;39.768;2.722;2023-05-28T08:24:27;101101.28;;;21.26;68.59
54248;BME280;40161;39.768;2.722;2023-05-28T08:26:52;101101.22;;;21.30;67.91
54248;BME280;40161;39.768;2.722;2023-05-28T08:29:18;101110.34;;;21.34;67.82
54248;BME280;40161;39.768;2.722;2023-05-28T08:31:43;101101.53;;;21.36;66.90
54248;BME280;40161;39.768;2.722;2023-05-28T08:34:09;101103.47;;;21.39;66.44
54248;BME280;40161;39.768;2.722;2023-05-28T08:36:35;101107.75;;;21.43;66.74
54248;BME280;40161;39.768;2.722;2023-05-28T08:39:01;101095.47;;;21.41;65.45
54248;BME280;40161;39.768;2.722;2023-05-28T08:41:27;101106.88;;;21.46;66.31
54248;BME280;40161;39.768;2.722;2023-05-28T08:43:53;101106.47;;;21.48;65.87
54248;BME280;40161;39.768;2.722;2023-05-28T08:46:18;101102.81;;;21.51;65.72
54248;BME280;40161;39.768;2.722;2023-05-28T08:48:45;101108.31;;;21.54;64.07
54248;BME280;40161;39.768;2.722;2023-05-28T08:51:10;101101.44;;;21.59;63.27
54248;BME280;40161;39.768;2.722;2023-05-28T08:53:43;101101.34;;;21.63;62.37
54248;BME280;40161;39.768;2.722;2023-05-28T08:56:09;101093.13;;;21.55;53.95
54248;BME280;40161;39.768;2.722;2023-05-28T08:58:35;101093.75;;;21.63;54.48
54248;BME280;40161;39.768;2.722;2023-05-28T09:01:10;101090.81;;;21.70;55.23
54248;BME280;40161;39.768;2.722;2023-05-28T09:03:37;101086.28;;;21.76;55.42
54248;BME280;40161;39.768;2.722;2023-05-28T09:06:03;101072.41;;;21.73;54.83
54248;BME280;40161;39.768;2.722;2023-05-28T09:08:29;101085.41;;;21.79;55.12
54248;BME280;40161;39.768;2.722;2023-05-28T09:10:58;101059.81;;;21.65;54.41
54248;BME280;40161;39.768;2.722;2023-05-28T09:13:33;101081.91;;;21.75;54.15
54248;BME280;40161;39.768;2.722;2023-05-28T09:15:59;101079.63;;;21.70;53.79
54248;BME280;40161;39.768;2.722;2023-05-28T09:18:24;101088.28;;;21.76;55.72
54248;BME280;40161;39.768;2.722;2023-05-28T09:20:51;101086.28;;;21.76;55.72
54248;BME280;40161;39.768;2.722;2023-05-28T09:23:19;101080.84;;;21.69;53.73
54248;BME280;40161;39.768;2.722;2023-05-28T09:25:46;101079.47;;;21.61;53.13
54248;BME280;40161;39.768;2.722;2023-05-28T09:28:12;101082.09;;;21.68;54.09
54248;BME280;40161;39.768;2.722;2023-05-28T09:30:39;101083.72;;;21.66;53.58
54248;BME280;40161;39.768;2.722;2023-05-28T09:33:06;101086.81;;;21.71;53.64
54248;BME280;40161;39.768;2.722;2023-05-28T09:35:33;101080.69;;;21.76;53.92
54248;BME280;40161;39.768;2.722;2023-05-28T09:40:26;101065.91;;;21.60;57.95
54248;BME280;40161;39.768;2.722;2023-05-28T09:42:52;101072.91;;;21.68;59.45
54248;BME280;40161;39.768;2.722;2023-05-28T09:45:23;101078.44;;;21.71;60.69
54248;BME280;40161;39.768;2.722;2023-05-28T09:47:49;101076.06;;;21.70;62.55
54248;BME280;40161;39.768;2.722;2023-05-28T09:50:15;101070.84;;;21.72;65.27
54248;BME280;40161;39.768;2.722;2023-05-28T09:52:43;101031.00;;;21.51;67.12
54248;BME280;40161;39.768;2.722;2023-05-28T09:55:13;101073.72;;;21.68;67.51
54248;BME280;40161;39.768;2.722;2023-05-28T09:57:46;101069.78;;;21.66;67.92
54248;BME280;40161;39.768;2.722;2023-05-28T10:00:28;101059.72;;;21.52;69.08
54248;BME280;40161;39.768;2.722;2023-05-28T10:03:06;101081.72;;;21.66;67.98
54248;BME280;40161;39.768;2.722;2023-05-28T10:05:36;101072.66;;;21.62;68.34
54248;BME280;40161;39.768;2.722;2023-05-28T10:08:04;101078.16;;;21.66;69.84
54248;BME280;40161;39.768;2.722;2023-05-28T10:10:31;101073.50;;;21.59;71.38
54248;BME280;40161;39.768;2.722;2023-05-28T10:12:57;101084.22;;;21.61;70.33
54248;BME280;40161;39.768;2.722;2023-05-28T10:15:24;101079.97;;;21.56;68.76
54248;BME280;40161;39.768;2.722;2023-05-28T10:17:51;101070.81;;;21.55;67.61
54248;BME280;40161;39.768;2.722;2023-05-28T10:20:17;101074.38;;;21.56;66.81
54248;BME280;40161;39.768;2.722;2023-05-28T10:22:44;101078.22;;;21.62;67.13
54248;BME280;40161;39.768;2.722;2023-05-28T10:25:10;101092.09;;;21.66;68.33
54248;BME280;40161;39.768;2.722;2023-05-28T10:27:42;101082.16;;;21.65;67.07
54248;BME280;40161;39.768;2.722;2023-05-28T10:30:10;101083.38;;;21.64;65.65
54248;BME280;40161;39.768;2.722;2023-05-28T10:32:38;101070.63;;;21.63;65.24
54248;BME280;40161;39.768;2.722;2023-05-28T10:35:06;101078.22;;;21.62;62.42
54248;BME280;40161;39.768;2.722;2023-05-28T10:37:32;101080.78;;;21.73;63.29
54248;BME280;40161;39.768;2.722;2023-05-28T10:40:00;101076.75;;;21.74;62.77
54248;BME280;40161;39.768;2.722;2023-05-28T10:42:26;101076.16;;;21.83;61.97
54248;BME280;40161;39.768;2.722;2023-05-28T10:47:32;101073.97;;;21.90;58.02
54248;BME280;40161;39.768;2.722;2023-05-28T10:52:26;101075.81;;;21.97;55.71
54248;BME280;40161;39.768;2.722;2023-05-28T10:54:53;101063.41;;;21.98;56.89
54248;BME280;40161;39.768;2.722;2023-05-28T10:57:20;101068.81;;;22.05;56.51
54248;BME280;40161;39.768;2.722;2023-05-28T11:02:22;101063.41;;;22.14;56.67
54248;BME280;40161;39.768;2.722;2023-05-28T11:04:56;101061.00;;;22.16;56.87
54248;BME280;40161;39.768;2.722;2023-05-28T11:07:35;101069.72;;;22.18;56.66
54248;BME280;40161;39.768;2.722;2023-05-28T11:10:03;101065.19;;;22.24;57.78
54248;BME280;40161;39.768;2.722;2023-05-28T11:12:31;101059.22;;;22.22;58.09
54248;BME280;40161;39.768;2.722;2023-05-28T11:14:57;101054.00;;;22.24;58.04
54248;BME280;40161;39.768;2.722;2023-05-28T11:17:22;101056.25;;;22.30;57.80
54248;BME280;40161;39.768;2.722;2023-05-28T11:19:50;101040.81;;;22.25;58.67
54248;BME280;40161;39.768;2.722;2023-05-28T11:22:18;101038.97;;;22.18;58.78
54248;BME280;40161;39.768;2.722;2023-05-28T11:25:07;101040.13;;;22.21;59.78
54248;BME280;40161;39.768;2.722;2023-05-28T11:27:34;101053.13;;;22.27;59.18
54248;BME280;40161;39.768;2.722;2023-05-28T11:30:08;101062.66;;;22.30;58.90
54248;BME280;40161;39.768;2.722;2023-05-28T11:32:34;101062.66;;;22.30;58.49
54248;BME280;40161;39.768;2.722;2023-05-28T11:35:01;101063.53;;;22.27;58.41
54248;BME280;40161;39.768;2.722;2023-05-28T11:37:28;101057.31;;;22.19;58.56
54248;BME280;40161;39.768;2.722;2023-05-28T11:39:56;101058.91;;;22.20;58.27
54248;BME280;40161;39.768;2.722;2023-05-28T11:42:23;101037.47;;;22.14;57.93
54248;BME280;40161;39.768;2.722;2023-05-28T11:44:49;101029.97;;;22.11;57.56
54248;BME280;40161;39.768;2.722;2023-05-28T11:47:16;101040.69;;;22.12;57.99
54248;BME280;40161;39.768;2.722;2023-05-28T11:49:42;101057.16;;;22.26;58.24
54248;BME280;40161;39.768;2.722;2023-05-28T11:52:16;101033.91;;;22.13;57.88
54248;BME280;40161;39.768;2.722;2023-05-28T11:54:44;101057.56;;;22.25;57.80
54248;BME280;40161;39.768;2.722;2023-05-28T11:57:10;101045.63;;;22.24;58.28
54248;BME280;40161;39.768;2.722;2023-05-28T11:59:36;101045.16;;;22.26;58.66
54248;BME280;40161;39.768;2.722;2023-05-28T12:02:13;101041.94;;;22.27;59.05
54248;BME280;40161;39.768;2.722;2023-05-28T12:04:40;101027.16;;;22.11;59.45
54248;BME280;40161;39.768;2.722;2023-05-28T12:07:17;101038.47;;;22.23;59.95
54248;BME280;40161;39.768;2.722;2023-05-28T12:09:43;101043.59;;;22.25;60.42
54248;BME280;40161;39.768;2.722;2023-05-28T12:12:12;101021.94;;;22.13;60.40
54248;BME280;40161;39.768;2.722;2023-05-28T12:14:38;101020.03;;;22.10;60.34
54248;BME280;40161;39.768;2.722;2023-05-28T12:17:12;101049.19;;;22.25;59.78
54248;BME280;40161;39.768;2.722;2023-05-28T12:19:38;101036.00;;;22.25;60.70
54248;BME280;40161;39.768;2.722;2023-05-28T12:22:13;101032.88;;;22.23;59.71
54248;BME280;40161;39.768;2.722;2023-05-28T12:24:47;101022.13;;;22.22;60.17
54248;BME280;40161;39.768;2.722;2023-05-28T12:27:13;101046.75;;;22.27;60.61
54248;BME280;40161;39.768;2.722;2023-05-28T12:29:38;101038.09;;;22.21;58.91
54248;BME280;40161;39.768;2.722;2023-05-28T12:32:04;101042.91;;;22.21;58.54
54248;BME280;40161;39.768;2.722;2023-05-28T12:34:30;101039.75;;;22.19;58.07
54248;BME280;40161;39.768;2.722;2023-05-28T12:36:55;101044.22;;;22.16;58.17
54248;BME280;40161;39.768;2.722;2023-05-28T12:39:21;101030.31;;;22.13;57.95
54248;BME280;40161;39.768;2.722;2023-05-28T12:41:46;101030.31;;;22.13;57.71
54248;BME280;40161;39.768;2.722;2023-05-28T12:44:13;101040.00;;;22.08;56.62
54248;BME280;40161;39.768;2.722;2023-05-28T12:46:39;101039.59;;;22.10;56.19
54248;BME280;40161;39.768;2.722;2023-05-28T12:49:05;101033.63;;;22.08;57.20
54248;BME280;40161;39.768;2.722;2023-05-28T12:51:30;101034.41;;;22.08;57.01
54248;BME280;40161;39.768;2.722;2023-05-28T12:53:57;101029.59;;;22.09;55.64
54248;BME280;40161;39.768;2.722;2023-05-28T12:56:25;101042.38;;;22.10;56.58
54248;BME280;40161;39.768;2.722;2023-05-28T12:58:51;101043.34;;;22.03;55.34